sensor_id;sensor_type;location;lat;lon;timestamp;pressure;altitude;pressure_sealevel;temperature;humidity
46408;BME280;32110;45.724;21.276;2023-02-01T00:00:29;100821.81;;;1.69;nan
46408;BME280;32110;45.724;21.276;2023-02-01T00:02:54;100829.00;;;1.75;nan
46408;BME280;32110;45.724;21.276;2023-02-01T00:05:20;100800.38;;;1.59;nan
46408;BME280;32110;45.724;21.276;2023-02-01T00:07:47;100819.06;;;1.70;nan
46408;BME280;32110;45.724;21.276;2023-02-01T00:10:13;100822.97;;;1.75;nan
46408;BME280;32110;45.724;21.276;2023-02-01T00:12:38;100810.78;;;1.67;nan
46408;BME280;32110;45.724;21.276;2023-02-01T00:15:04;100817.75;;;1.66;nan
46408;BME280;32110;45.724;21.276;2023-02-01T00:17:30;100805.25;;;1.62;nan
46408;BME280;32110;45.724;21.276;2023-02-01T00:19:55;100814.84;;;1.69;nan
46408;BME280;32110;45.724;21.276;2023-02-01T00:22:20;100822.47;;;1.71;nan
46408;BME280;32110;45.724;21.276;2023-02-01T00:24:46;100808.84;;;1.69;nan
46408;BME280;32110;45.724;21.276;2023-02-01T00:27:11;100813.56;;;1.74;nan
46408;BME280;32110;45.724;21.276;2023-02-01T00:29:42;100799.72;;;1.65;nan
46408;BME280;32110;45.724;21.276;2023-02-01T00:32:08;100802.19;;;1.75;nan
46408;BME280;32110;45.724;21.276;2023-02-01T00:34:33;100802.03;;;1.76;nan
46408;BME280;32110;45.724;21.276;2023-02-01T00:36:59;100775.59;;;1.73;nan
46408;BME280;32110;45.724;21.276;2023-02-01T00:39:25;100788.78;;;1.87;nan
46408;BME280;32110;45.724;21.276;2023-02-01T00:41:50;100781.47;;;1.83;nan
46408;BME280;32110;45.724;21.276;2023-02-01T00:44:16;100790.25;;;1.90;nan
46408;BME280;32110;45.724;21.276;2023-02-01T00:46:41;100765.38;;;1.79;nan
46408;BME280;32110;45.724;21.276;2023-02-01T00:49:07;100776.78;;;1.95;nan
46408;BME280;32110;45.724;21.276;2023-02-01T00:51:34;100774.66;;;1.98;nan
46408;BME280;32110;45.724;21.276;2023-02-01T00:53:59;100768.34;;;2.01;nan
46408;BME280;32110;45.724;21.276;2023-02-01T00:56:25;100772.41;;;2.03;nan
46408;BME280;32110;45.724;21.276;2023-02-01T00:58:52;100764.00;;;2.01;nan
46408;BME280;32110;45.724;21.276;2023-02-01T01:01:23;100765.44;;;2.04;nan
46408;BME280;32110;45.724;21.276;2023-02-01T01:03:51;100771.28;;;2.06;nan
46408;BME280;32110;45.724;21.276;2023-02-01T01:06:26;100756.34;;;2.00;nan
46408;BME280;32110;45.724;21.276;2023-02-01T01:08:53;100764.63;;;2.03;nan
46408;BME280;32110;45.724;21.276;2023-02-01T01:11:21;100765.09;;;1.99;nan
46408;BME280;32110;45.724;21.276;2023-02-01T01:13:48;100770.47;;;1.97;nan
46408;BME280;32110;45.724;21.276;2023-02-01T01:16:14;100764.63;;;1.95;nan
46408;BME280;32110;45.724;21.276;2023-02-01T01:18:40;100762.81;;;1.87;nan
46408;BME280;32110;45.724;21.276;2023-02-01T01:21:07;100759.53;;;1.77;nan
46408;BME280;32110;45.724;21.276;2023-02-01T01:23:33;100764.09;;;1.75;nan
46408;BME280;32110;45.724;21.276;2023-02-01T01:25:59;100786.31;;;1.78;nan
46408;BME280;32110;45.724;21.276;2023-02-01T01:28:24;100784.84;;;1.75;nan
46408;BME280;32110;45.724;21.276;2023-02-01T01:30:50;100788.53;;;1.64;nan
46408;BME280;32110;45.724;21.276;2023-02-01T01:33:15;100799.78;;;1.73;nan
46408;BME280;32110;45.724;21.276;2023-02-01T01:35:41;100782.53;;;1.64;nan
46408;BME280;32110;45.724;21.276;2023-02-01T01:38:06;100783.53;;;1.63;nan
46408;BME280;32110;45.724;21.276;2023-02-01T01:40:31;100742.88;;;1.37;nan
46408;BME280;32110;45.724;21.276;2023-02-01T01:42:57;100786.41;;;1.60;nan
46408;BME280;32110;45.724;21.276;2023-02-01T01:45:35;100790.47;;;1.62;nan
46408;BME280;32110;45.724;21.276;2023-02-01T01:48:05;100794.06;;;1.61;nan
46408;BME280;32110;45.724;21.276;2023-02-01T01:50:50;100777.63;;;1.53;nan
46408;BME280;32110;45.724;21.276;2023-02-01T01:53:21;100785.47;;;1.61;nan
46408;BME280;32110;45.724;21.276;2023-02-01T01:55:49;100774.75;;;1.56;nan
46408;BME280;32110;45.724;21.276;2023-02-01T01:58:18;100771.47;;;1.54;nan
46408;BME280;32110;45.724;21.276;2023-02-01T02:00:45;100782.84;;;1.61;nan
46408;BME280;32110;45.724;21.276;2023-02-01T02:03:20;100770.00;;;1.51;nan
46408;BME280;32110;45.724;21.276;2023-02-01T02:05:51;100779.09;;;1.55;nan
46408;BME280;32110;45.724;21.276;2023-02-01T02:08:18;100785.13;;;1.56;nan
46408;BME280;32110;45.724;21.276;2023-02-01T02:10:46;100777.66;;;1.61;nan
46408;BME280;32110;45.724;21.276;2023-02-01T02:13:31;100771.63;;;1.52;nan
46408;BME280;32110;45.724;21.276;2023-02-01T02:39:53;100749.41;;;1.49;nan
46408;BME280;32110;45.724;21.276;2023-02-01T02:42:29;100764.50;;;1.62;nan
46408;BME280;32110;45.724;21.276;2023-02-01T02:45:38;100762.09;;;1.61;nan
46408;BME280;32110;45.724;21.276;2023-02-01T02:51:09;100732.50;;;1.45;nan
46408;BME280;32110;45.724;21.276;2023-02-01T02:54:05;100751.19;;;1.57;nan
46408;BME280;32110;45.724;21.276;2023-02-01T02:56:52;100734.94;;;1.47;nan
46408;BME280;32110;45.724;21.276;2023-02-01T02:59:38;100745.34;;;1.55;nan
46408;BME280;32110;45.724;21.276;2023-02-01T03:02:26;100742.06;;;1.45;nan
46408;BME280;32110;45.724;21.276;2023-02-01T03:05:10;100748.59;;;1.49;nan
46408;BME280;32110;45.724;21.276;2023-02-01T03:12:47;100723.69;;;1.30;nan
46408;BME280;32110;45.724;21.276;2023-02-01T03:15:36;100722.06;;;1.29;nan
46408;BME280;32110;45.724;21.276;2023-02-01T03:18:10;100740.09;;;1.39;nan
46408;BME280;32110;45.724;21.276;2023-02-01T03:20:40;100726.28;;;1.30;nan
46408;BME280;32110;45.724;21.276;2023-02-01T03:23:07;100740.59;;;1.34;nan
46408;BME280;32110;45.724;21.276;2023-02-01T03:25:34;100726.75;;;1.25;nan
46408;BME280;32110;45.724;21.276;2023-02-01T03:28:10;100734.56;;;1.34;nan
46408;BME280;32110;45.724;21.276;2023-02-01T03:30:38;100727.88;;;1.23;nan
46408;BME280;32110;45.724;21.276;2023-02-01T03:33:10;100733.75;;;1.33;nan
46408;BME280;32110;45.724;21.276;2023-02-01T03:36:17;100735.50;;;1.24;nan
46408;BME280;32110;45.724;21.276;2023-02-01T03:44:32;100713.66;;;1.27;nan
46408;BME280;32110;45.724;21.276;2023-02-01T03:47:13;100718.66;;;1.28;nan
46408;BME280;32110;45.724;21.276;2023-02-01T03:49:49;100710.72;;;1.30;nan
46408;BME280;32110;45.724;21.276;2023-02-01T03:54:52;100691.91;;;1.20;nan
46408;BME280;32110;45.724;21.276;2023-02-01T03:57:23;100702.75;;;1.23;nan
46408;BME280;32110;45.724;21.276;2023-02-01T03:59:51;100700.50;;;1.28;nan
46408;BME280;32110;45.724;21.276;2023-02-01T04:02:17;100701.63;;;1.26;nan
46408;BME280;32110;45.724;21.276;2023-02-01T04:04:42;100713.94;;;1.24;nan
46408;BME280;32110;45.724;21.276;2023-02-01T04:07:08;100679.00;;;1.02;nan
46408;BME280;32110;45.724;21.276;2023-02-01T04:09:33;100709.06;;;1.21;nan
46408;BME280;32110;45.724;21.276;2023-02-01T04:11:58;100708.41;;;1.19;nan
46408;BME280;32110;45.724;21.276;2023-02-01T04:14:24;100709.22;;;1.19;nan
46408;BME280;32110;45.724;21.276;2023-02-01T04:16:50;100673.19;;;1.08;nan
46408;BME280;32110;45.724;21.276;2023-02-01T04:19:15;100653.19;;;0.92;nan
46408;BME280;32110;45.724;21.276;2023-02-01T04:21:40;100693.31;;;1.14;nan
46408;BME280;32110;45.724;21.276;2023-02-01T04:24:06;100698.19;;;1.17;nan
46408;BME280;32110;45.724;21.276;2023-02-01T04:26:32;100702.91;;;1.22;nan
46408;BME280;32110;45.724;21.276;2023-02-01T04:28:57;100695.94;;;1.22;nan
46408;BME280;32110;45.724;21.276;2023-02-01T04:31:22;100655.94;;;0.91;nan
46408;BME280;32110;45.724;21.276;2023-02-01T04:33:54;100691.56;;;1.23;nan
46408;BME280;32110;45.724;21.276;2023-02-01T04:36:21;100687.19;;;1.23;nan
46408;BME280;32110;45.724;21.276;2023-02-01T04:38:48;100687.97;;;1.16;nan
46408;BME280;32110;45.724;21.276;2023-02-01T04:41:14;100707.44;;;1.20;nan
46408;BME280;32110;45.724;21.276;2023-02-01T04:43:40;100710.69;;;1.22;nan
46408;BME280;32110;45.724;21.276;2023-02-01T04:46:06;100698.34;;;1.16;nan
46408;BME280;32110;45.724;21.276;2023-02-01T04:48:31;100694.44;;;1.12;nan
46408;BME280;32110;45.724;21.276;2023-02-01T04:50:56;100697.88;;;1.20;nan
46408;BME280;32110;45.724;21.276;2023-02-01T04:53:22;100705.81;;;1.19;nan
46408;BME280;32110;45.724;21.276;2023-02-01T04:55:48;100681.47;;;1.12;nan
46408;BME280;32110;45.724;21.276;2023-02-01T04:58:13;100688.63;;;1.18;nan
46408;BME280;32110;45.724;21.276;2023-02-01T05:00:39;100677.91;;;1.13;nan
46408;BME280;32110;45.724;21.276;2023-02-01T05:03:04;100701.94;;;1.23;nan
46408;BME280;32110;45.724;21.276;2023-02-01T05:05:30;100702.59;;;1.25;nan
46408;BME280;32110;45.724;21.276;2023-02-01T05:07:55;100706.50;;;1.29;nan
46408;BME280;32110;45.724;21.276;2023-02-01T05:10:21;100708.13;;;1.30;nan
46408;BME280;32110;45.724;21.276;2023-02-01T05:12:47;100702.13;;;1.30;nan
46408;BME280;32110;45.724;21.276;2023-02-01T05:15:31;100694.81;;;1.25;nan
46408;BME280;32110;45.724;21.276;2023-02-01T05:17:58;100714.66;;;1.34;nan
46408;BME280;32110;45.724;21.276;2023-02-01T05:20:24;100703.44;;;1.34;nan
46408;BME280;32110;45.724;21.276;2023-02-01T05:22:50;100709.94;;;1.30;nan
46408;BME280;32110;45.724;21.276;2023-02-01T05:25:15;100711.06;;;1.27;nan
46408;BME280;32110;45.724;21.276;2023-02-01T05:27:41;100712.00;;;1.26;nan
46408;BME280;32110;45.724;21.276;2023-02-01T05:30:07;100708.25;;;1.20;nan
46408;BME280;32110;45.724;21.276;2023-02-01T05:32:33;100697.38;;;1.17;nan
46408;BME280;32110;45.724;21.276;2023-02-01T05:34:59;100701.94;;;1.23;nan
46408;BME280;32110;45.724;21.276;2023-02-01T05:37:24;100708.13;;;1.30;nan
46408;BME280;32110;45.724;21.276;2023-02-01T05:39:50;100713.31;;;1.30;nan
46408;BME280;32110;45.724;21.276;2023-02-01T05:42:15;100706.00;;;1.25;nan
46408;BME280;32110;45.724;21.276;2023-02-01T05:44:40;100719.31;;;1.31;nan
46408;BME280;32110;45.724;21.276;2023-02-01T05:47:06;100720.13;;;1.31;nan
46408;BME280;32110;45.724;21.276;2023-02-01T05:49:31;100701.78;;;1.24;nan
46408;BME280;32110;45.724;21.276;2023-02-01T05:51:57;100707.81;;;1.33;nan
46408;BME280;32110;45.724;21.276;2023-02-01T05:54:22;100720.63;;;1.35;nan
46408;BME280;32110;45.724;21.276;2023-02-01T05:56:48;100694.16;;;1.23;nan
46408;BME280;32110;45.724;21.276;2023-02-01T05:59:13;100705.06;;;1.35;nan
46408;BME280;32110;45.724;21.276;2023-02-01T06:01:38;100703.75;;;1.31;nan
46408;BME280;32110;45.724;21.276;2023-02-01T06:04:04;100725.03;;;1.34;nan
46408;BME280;32110;45.724;21.276;2023-02-01T06:06:29;100685.69;;;1.13;nan
46408;BME280;32110;45.724;21.276;2023-02-01T06:08:54;100742.69;;;1.39;nan
46408;BME280;32110;45.724;21.276;2023-02-01T06:11:20;100744.19;;;1.41;nan
46408;BME280;32110;45.724;21.276;2023-02-01T06:13:45;100749.88;;;1.45;nan
46408;BME280;32110;45.724;21.276;2023-02-01T06:16:11;100732.81;;;1.42;nan
46408;BME280;32110;45.724;21.276;2023-02-01T06:18:36;100735.28;;;1.52;nan
46408;BME280;32110;45.724;21.276;2023-02-01T06:21:03;100735.28;;;1.52;nan
46408;BME280;32110;45.724;21.276;2023-02-01T06:23:30;100729.25;;;1.43;nan
46408;BME280;32110;45.724;21.276;2023-02-01T06:26:03;100756.06;;;1.60;nan
46408;BME280;32110;45.724;21.276;2023-02-01T06:28:30;100748.13;;;1.62;nan
46408;BME280;32110;45.724;21.276;2023-02-01T06:30:56;100759.84;;;1.66;nan
46408;BME280;32110;45.724;21.276;2023-02-01T06:33:25;100759.84;;;1.66;nan
46408;BME280;32110;45.724;21.276;2023-02-01T06:35:58;100761.16;;;1.70;nan
46408;BME280;32110;45.724;21.276;2023-02-01T06:38:24;100753.84;;;1.65;nan
46408;BME280;32110;45.724;21.276;2023-02-01T06:40:54;100760.03;;;1.73;nan
46408;BME280;32110;45.724;21.276;2023-02-01T06:43:24;100761.50;;;1.75;nan
46408;BME280;32110;45.724;21.276;2023-02-01T06:45:51;100760.66;;;1.75;nan
46408;BME280;32110;45.724;21.276;2023-02-01T06:48:17;100772.41;;;1.87;nan
46408;BME280;32110;45.724;21.276;2023-02-01T06:50:42;100756.44;;;1.82;nan
46408;BME280;32110;45.724;21.276;2023-02-01T06:53:07;100756.81;;;1.87;nan
46408;BME280;32110;45.724;21.276;2023-02-01T06:55:33;100762.50;;;1.90;nan
46408;BME280;32110;45.724;21.276;2023-02-01T06:57:58;100766.41;;;1.95;nan
46408;BME280;32110;45.724;21.276;2023-02-01T07:00:24;100773.06;;;1.97;nan
46408;BME280;32110;45.724;21.276;2023-02-01T07:02:50;100771.28;;;1.98;nan
46408;BME280;32110;45.724;21.276;2023-02-01T07:05:16;100754.69;;;1.99;nan
46408;BME280;32110;45.724;21.276;2023-02-01T07:07:42;100765.13;;;2.07;nan
46408;BME280;32110;45.724;21.276;2023-02-01T07:10:08;100762.84;;;2.04;nan
46408;BME280;32110;45.724;21.276;2023-02-01T07:12:33;100771.31;;;2.14;nan
46408;BME280;32110;45.724;21.276;2023-02-01T07:14:59;100760.75;;;2.16;nan
46408;BME280;32110;45.724;21.276;2023-02-01T07:17:26;100764.34;;;2.23;nan
46408;BME280;32110;45.724;21.276;2023-02-01T07:19:54;100770.66;;;2.28;nan
46408;BME280;32110;45.724;21.276;2023-02-01T07:22:19;100754.09;;;2.29;nan
46408;BME280;32110;45.724;21.276;2023-02-01T07:24:44;100718.38;;;2.23;nan
46408;BME280;32110;45.724;21.276;2023-02-01T07:27:10;100757.03;;;2.59;nan
46408;BME280;32110;45.724;21.276;2023-02-01T07:29:35;100764.16;;;2.65;nan
46408;BME280;32110;45.724;21.276;2023-02-01T07:32:00;100762.22;;;2.75;nan
46408;BME280;32110;45.724;21.276;2023-02-01T07:34:27;100770.13;;;2.98;nan
46408;BME280;32110;45.724;21.276;2023-02-01T07:36:53;100775.16;;;3.08;nan
46408;BME280;32110;45.724;21.276;2023-02-01T07:39:19;100766.50;;;3.16;nan
46408;BME280;32110;45.724;21.276;2023-02-01T07:41:45;100760.78;;;3.20;nan
46408;BME280;32110;45.724;21.276;2023-02-01T07:44:11;100768.91;;;3.34;nan
46408;BME280;32110;45.724;21.276;2023-02-01T07:46:36;100774.25;;;3.40;nan
46408;BME280;32110;45.724;21.276;2023-02-01T07:49:01;100778.59;;;3.48;nan
46408;BME280;32110;45.724;21.276;2023-02-01T07:51:27;100780.50;;;3.62;nan
46408;BME280;32110;45.724;21.276;2023-02-01T07:53:52;100786.00;;;3.68;nan
46408;BME280;32110;45.724;21.276;2023-02-01T07:56:20;100789.56;;;3.75;nan
46408;BME280;32110;45.724;21.276;2023-02-01T07:58:49;100787.16;;;3.96;nan
46408;BME280;32110;45.724;21.276;2023-02-01T08:01:17;100773.56;;;4.09;nan
46408;BME280;32110;45.724;21.276;2023-02-01T08:03:51;100780.47;;;4.25;nan
46408;BME280;32110;45.724;21.276;2023-02-01T08:06:17;100762.47;;;4.38;nan
46408;BME280;32110;45.724;21.276;2023-02-01T08:08:42;100773.66;;;4.62;nan
46408;BME280;32110;45.724;21.276;2023-02-01T08:11:10;100767.22;;;4.73;nan
46408;BME280;32110;45.724;21.276;2023-02-01T08:13:35;100764.97;;;4.84;nan
46408;BME280;32110;45.724;21.276;2023-02-01T08:16:03;100761.47;;;4.92;nan
46408;BME280;32110;45.724;21.276;2023-02-01T08:18:29;100759.59;;;5.01;nan
46408;BME280;32110;45.724;21.276;2023-02-01T08:20:55;100736.91;;;5.01;nan
46408;BME280;32110;45.724;21.276;2023-02-01T08:23:21;100761.84;;;5.19;nan
46408;BME280;32110;45.724;21.276;2023-02-01T08:25:47;100748.25;;;5.08;nan
46408;BME280;32110;45.724;21.276;2023-02-01T08:28:13;100756.63;;;5.19;nan
46408;BME280;32110;45.724;21.276;2023-02-01T08:30:39;100754.00;;;5.19;nan
46408;BME280;32110;45.724;21.276;2023-02-01T08:33:07;100750.69;;;5.25;nan
46408;BME280;32110;45.724;21.276;2023-02-01T08:35:35;100763.47;;;5.35;nan
46408;BME280;32110;45.724;21.276;2023-02-01T08:38:00;100765.53;;;5.39;nan
46408;BME280;32110;45.724;21.276;2023-02-01T08:40:26;100754.91;;;5.41;nan
46408;BME280;32110;45.724;21.276;2023-02-01T08:42:51;100756.03;;;5.53;nan
46408;BME280;32110;45.724;21.276;2023-02-01T08:45:27;100752.78;;;5.66;nan
46408;BME280;32110;45.724;21.276;2023-02-01T08:47:55;100740.78;;;5.71;nan
46408;BME280;32110;45.724;21.276;2023-02-01T08:50:22;100742.06;;;5.75;nan
46408;BME280;32110;45.724;21.276;2023-02-01T08:52:48;100748.16;;;5.83;nan
46408;BME280;32110;45.724;21.276;2023-02-01T08:55:14;100746.34;;;5.83;nan
46408;BME280;32110;45.724;21.276;2023-02-01T08:57:40;100740.94;;;5.85;nan
46408;BME280;32110;45.724;21.276;2023-02-01T09:00:08;100725.63;;;5.82;nan
46408;BME280;32110;45.724;21.276;2023-02-01T09:02:35;100738.69;;;5.96;nan
46408;BME280;32110;45.724;21.276;2023-02-01T09:05:01;100739.31;;;5.99;nan
46408;BME280;32110;45.724;21.276;2023-02-01T09:07:26;100725.78;;;5.95;nan
46408;BME280;32110;45.724;21.276;2023-02-01T09:09:52;100732.16;;;5.92;nan
46408;BME280;32110;45.724;21.276;2023-02-01T09:12:19;100748.94;;;5.98;nan
46408;BME280;32110;45.724;21.276;2023-02-01T09:14:45;100752.81;;;6.02;nan
46408;BME280;32110;45.724;21.276;2023-02-01T09:17:10;100756.47;;;6.08;nan
46408;BME280;32110;45.724;21.276;2023-02-01T09:19:36;100750.88;;;6.11;nan
46408;BME280;32110;45.724;21.276;2023-02-01T09:22:01;100751.94;;;6.16;nan
46408;BME280;32110;45.724;21.276;2023-02-01T09:24:26;100746.53;;;6.18;nan
46408;BME280;32110;45.724;21.276;2023-02-01T09:26:52;100746.09;;;6.14;nan
46408;BME280;32110;45.724;21.276;2023-02-01T09:29:18;100760.03;;;6.22;nan
46408;BME280;32110;45.724;21.276;2023-02-01T09:31:43;100742.72;;;6.21;nan
46408;BME280;32110;45.724;21.276;2023-02-01T09:34:09;100757.66;;;6.27;nan
46408;BME280;32110;45.724;21.276;2023-02-01T09:36:34;100753.13;;;6.35;nan
46408;BME280;32110;45.724;21.276;2023-02-01T09:39:00;100757.34;;;6.36;nan
46408;BME280;32110;45.724;21.276;2023-02-01T09:44:18;100739.47;;;6.40;nan
46408;BME280;32110;45.724;21.276;2023-02-01T09:46:47;100736.16;;;6.31;nan
46408;BME280;32110;45.724;21.276;2023-02-01T09:49:18;100733.75;;;6.30;nan
46408;BME280;32110;45.724;21.276;2023-02-01T09:51:48;100733.00;;;6.36;nan
46408;BME280;32110;45.724;21.276;2023-02-01T09:54:17;100726.97;;;6.35;nan
46408;BME280;32110;45.724;21.276;2023-02-01T09:56:54;100721.34;;;6.38;nan
46408;BME280;32110;45.724;21.276;2023-02-01T09:59:39;100740.28;;;6.41;nan
46408;BME280;32110;45.724;21.276;2023-02-01T10:02:12;100715.81;;;6.27;nan
46408;BME280;32110;45.724;21.276;2023-02-01T10:04:39;100741.09;;;6.41;nan
46408;BME280;32110;45.724;21.276;2023-02-01T10:25:37;100730.00;;;6.67;nan
46408;BME280;32110;45.724;21.276;2023-02-01T10:28:14;100725.06;;;6.79;nan
46408;BME280;32110;45.724;21.276;2023-02-01T10:30:46;100713.97;;;6.77;nan
46408;BME280;32110;45.724;21.276;2023-02-01T10:33:39;100725.72;;;6.88;nan
46408;BME280;32110;45.724;21.276;2023-02-01T10:36:31;100729.78;;;6.90;nan
46408;BME280;32110;45.724;21.276;2023-02-01T10:38:58;100743.09;;;6.95;nan
46408;BME280;32110;45.724;21.276;2023-02-01T10:41:30;100728.97;;;6.96;nan
46408;BME280;32110;45.724;21.276;2023-02-01T10:43:58;100723.03;;;7.09;nan
46408;BME280;32110;45.724;21.276;2023-02-01T10:46:25;100737.91;;;7.09;nan
46408;BME280;32110;45.724;21.276;2023-02-01T10:48:54;100728.66;;;7.13;nan
46408;BME280;32110;45.724;21.276;2023-02-01T10:51:28;100731.94;;;7.21;nan
46408;BME280;32110;45.724;21.276;2023-02-01T10:54:10;100713.41;;;7.16;nan
46408;BME280;32110;45.724;21.276;2023-02-01T10:56:38;100725.66;;;7.16;nan
46408;BME280;32110;45.724;21.276;2023-02-01T10:59:06;100724.50;;;7.18;nan
46408;BME280;32110;45.724;21.276;2023-02-01T11:01:41;100717.84;;;7.22;nan
46408;BME280;32110;45.724;21.276;2023-02-01T11:04:16;100705.72;;;7.15;nan
46408;BME280;32110;45.724;21.276;2023-02-01T11:06:47;100712.56;;;7.16;nan
46408;BME280;32110;45.724;21.276;2023-02-01T11:09:21;100718.81;;;7.15;nan
46408;BME280;32110;45.724;21.276;2023-02-01T11:14:27;100693.63;;;7.14;nan
46408;BME280;32110;45.724;21.276;2023-02-01T11:16:59;100695.88;;;7.17;nan
46408;BME280;32110;45.724;21.276;2023-02-01T11:19:28;100677.72;;;7.15;nan
46408;BME280;32110;45.724;21.276;2023-02-01T11:22:00;100672.06;;;7.12;nan
46408;BME280;32110;45.724;21.276;2023-02-01T11:24:28;100678.91;;;7.13;nan
46408;BME280;32110;45.724;21.276;2023-02-01T11:26:59;100680.91;;;7.11;nan
46408;BME280;32110;45.724;21.276;2023-02-01T11:29:35;100684.38;;;7.11;nan
46408;BME280;32110;45.724;21.276;2023-02-01T11:32:02;100679.72;;;7.13;nan
46408;BME280;32110;45.724;21.276;2023-02-01T11:34:36;100647.63;;;6.98;nan
46408;BME280;32110;45.724;21.276;2023-02-01T11:37:03;100665.38;;;7.02;nan
46408;BME280;32110;45.724;21.276;2023-02-01T11:39:31;100666.16;;;6.96;nan
46408;BME280;32110;45.724;21.276;2023-02-01T11:42:01;100673.81;;;6.98;nan
46408;BME280;32110;45.724;21.276;2023-02-01T11:44:39;100676.25;;;7.06;nan
46408;BME280;32110;45.724;21.276;2023-02-01T11:47:22;100687.56;;;7.13;nan
46408;BME280;32110;45.724;21.276;2023-02-01T11:49:50;100671.28;;;7.11;nan
46408;BME280;32110;45.724;21.276;2023-02-01T12:08:56;100686.81;;;7.19;nan
46408;BME280;32110;45.724;21.276;2023-02-01T12:17:55;100676.03;;;6.94;nan
46408;BME280;32110;45.724;21.276;2023-02-01T12:34:57;100634.22;;;7.14;nan
46408;BME280;32110;45.724;21.276;2023-02-01T12:37:39;100622.72;;;7.15;nan
46408;BME280;32110;45.724;21.276;2023-02-01T12:43:43;100622.72;;;7.15;nan
46408;BME280;32110;45.724;21.276;2023-02-01T12:46:16;100603.41;;;7.16;nan
46408;BME280;32110;45.724;21.276;2023-02-01T12:48:54;100597.94;;;7.11;nan
46408;BME280;32110;45.724;21.276;2023-02-01T12:51:34;100584.63;;;7.13;nan
46408;BME280;32110;45.724;21.276;2023-02-01T12:56:28;100600.59;;;7.24;nan
46408;BME280;32110;45.724;21.276;2023-02-01T12:58:58;100590.28;;;7.23;nan
46408;BME280;32110;45.724;21.276;2023-02-01T13:01:34;100598.78;;;7.25;nan
46408;BME280;32110;45.724;21.276;2023-02-01T13:09:41;100600.59;;;7.24;nan
46408;BME280;32110;45.724;21.276;2023-02-01T13:12:19;100596.56;;;7.22;nan
46408;BME280;32110;45.724;21.276;2023-02-01T13:14:54;100559.81;;;6.95;nan
46408;BME280;32110;45.724;21.276;2023-02-01T13:17:26;100588.88;;;7.20;nan
46408;BME280;32110;45.724;21.276;2023-02-01T13:22:51;100596.97;;;7.19;nan
46408;BME280;32110;45.724;21.276;2023-02-01T13:25:28;100610.25;;;7.24;nan
46408;BME280;32110;45.724;21.276;2023-02-01T13:27:56;100594.94;;;7.21;nan
46408;BME280;32110;45.724;21.276;2023-02-01T13:30:41;100599.59;;;7.26;nan
46408;BME280;32110;45.724;21.276;2023-02-01T13:33:36;100586.69;;;7.24;nan
46408;BME280;32110;45.724;21.276;2023-02-01T13:39:17;100583.66;;;7.27;nan
46408;BME280;32110;45.724;21.276;2023-02-01T13:42:15;100585.69;;;7.25;nan
46408;BME280;32110;45.724;21.276;2023-02-01T13:44:48;100568.34;;;7.17;nan
46408;BME280;32110;45.724;21.276;2023-02-01T13:49:47;100570.38;;;7.22;nan
46408;BME280;32110;45.724;21.276;2023-02-01T13:57:47;100553.03;;;7.14;nan
46408;BME280;32110;45.724;21.276;2023-02-01T14:00:24;100556.44;;;7.15;nan
46408;BME280;32110;45.724;21.276;2023-02-01T14:13:29;100570.53;;;7.07;nan
46408;BME280;32110;45.724;21.276;2023-02-01T14:23:54;100578.16;;;6.95;nan
46408;BME280;32110;45.724;21.276;2023-02-01T14:26:59;100581.56;;;6.96;nan
46408;BME280;32110;45.724;21.276;2023-02-01T14:29:36;100566.22;;;6.86;nan
46408;BME280;32110;45.724;21.276;2023-02-01T14:32:06;100567.88;;;6.94;nan
46408;BME280;32110;45.724;21.276;2023-02-01T14:34:37;100573.31;;;6.92;nan
46408;BME280;32110;45.724;21.276;2023-02-01T14:47:45;100576.47;;;6.81;nan
46408;BME280;32110;45.724;21.276;2023-02-01T14:53:18;100567.22;;;6.78;nan
46408;BME280;32110;45.724;21.276;2023-02-01T15:01:36;100564.13;;;6.62;nan
46408;BME280;32110;45.724;21.276;2023-02-01T15:04:12;100571.75;;;6.56;nan
46408;BME280;32110;45.724;21.276;2023-02-01T15:06:56;100568.91;;;6.51;nan
46408;BME280;32110;45.724;21.276;2023-02-01T15:09:30;100554.97;;;6.37;nan
46408;BME280;32110;45.724;21.276;2023-02-01T15:14:27;100574.88;;;6.38;nan
46408;BME280;32110;45.724;21.276;2023-02-01T15:16:53;100559.13;;;6.25;nan
46408;BME280;32110;45.724;21.276;2023-02-01T15:19:21;100570.59;;;6.31;nan
46408;BME280;32110;45.724;21.276;2023-02-01T15:21:49;100576.22;;;6.28;nan
46408;BME280;32110;45.724;21.276;2023-02-01T15:24:23;100572.38;;;6.24;nan
46408;BME280;32110;45.724;21.276;2023-02-01T15:26:51;100569.09;;;6.15;nan
46408;BME280;32110;45.724;21.276;2023-02-01T15:29:18;100558.97;;;6.05;nan
46408;BME280;32110;45.724;21.276;2023-02-01T15:31:50;100563.00;;;6.08;nan
46408;BME280;32110;45.724;21.276;2023-02-01T15:34:17;100575.16;;;6.15;nan
46408;BME280;32110;45.724;21.276;2023-02-01T15:36:43;100574.31;;;6.15;nan
46408;BME280;32110;45.724;21.276;2023-02-01T15:39:23;100578.50;;;6.09;nan
46408;BME280;32110;45.724;21.276;2023-02-01T15:41:58;100578.09;;;6.06;nan
46408;BME280;32110;45.724;21.276;2023-02-01T15:44:45;100582.13;;;6.08;nan
46408;BME280;32110;45.724;21.276;2023-02-01T15:47:20;100573.38;;;5.94;nan
46408;BME280;32110;45.724;21.276;2023-02-01T15:49:59;100599.38;;;6.03;nan
46408;BME280;32110;45.724;21.276;2023-02-01T15:52:37;100602.38;;;6.00;nan
46408;BME280;32110;45.724;21.276;2023-02-01T15:55:07;100611.22;;;5.99;nan
46408;BME280;32110;45.724;21.276;2023-02-01T15:57:36;100613.84;;;5.99;nan
46408;BME280;32110;45.724;21.276;2023-02-01T16:00:07;100606.72;;;5.92;nan
46408;BME280;32110;45.724;21.276;2023-02-01T16:02:51;100619.25;;;5.97;nan
46408;BME280;32110;45.724;21.276;2023-02-01T16:05:40;100617.63;;;5.96;nan
46408;BME280;32110;45.724;21.276;2023-02-01T16:08:16;100621.25;;;5.95;nan
46408;BME280;32110;45.724;21.276;2023-02-01T16:10:47;100626.81;;;5.92;nan